Back to Top

Language: 

My Weather Underground Personal Weather Station Historical Data with Graphs...

Delerius Weather Station Historical Data
 
Daily Summary for February 25, 2018 Units:  English    Metric   Both
« Previous Day
Next Day »
Daily Weekly Monthly Yearly Custom
  Current: High: Low: Average:
Temperature: 29.7 °F 41.5 °F 29.7 °F 35.8 °F
Dew Point: 23.3 °F 31.9 °F 23.3 °F 27.8 °F
Humidity: 77 % 85 % 53 % 73 %
Wind Speed: 3.0 mph 11.0 mph 1.0 mph 5.7 mph
Wind Gust: 8.0 mph 19.0 mph - -
Wind:East - - ESE
Pressure: 30.52 in 30.52 in 30.38 in -
Precipitation: 0.00 in      
Historical Graphs
 
 
Tabular Data for February 25, 2018
Time Temperature Dew Point Pressure Wind Wind Speed Wind Gust Humidity Rainfall Rate (Hourly) solar Conditions
00:05 35.8 °F 31.7 °F 30.38 in ESE 6.0 mph 10.0 mph 85 % 0.00 in 0 W/m2
00:10 35.8 °F 31.7 °F 30.38 in East 7.0 mph 11.0 mph 85 % 0.00 in 0 W/m2
00:15 35.8 °F 31.7 °F 30.38 in ESE 9.0 mph 19.0 mph 85 % 0.00 in 0 W/m2
00:20 35.8 °F 31.7 °F 30.38 in ESE 8.0 mph 12.0 mph 85 % 0.00 in 0 W/m2
00:25 36.0 °F 31.9 °F 30.39 in ESE 5.0 mph 12.0 mph 85 % 0.00 in 0 W/m2
00:30 36.0 °F 31.9 °F 30.39 in ESE 6.0 mph 12.0 mph 85 % 0.00 in 0 W/m2
00:35 35.8 °F 31.4 °F 30.39 in ESE 8.0 mph 12.0 mph 84 % 0.00 in 0 W/m2
00:40 35.8 °F 31.4 °F 30.39 in ESE 5.0 mph 9.0 mph 84 % 0.00 in 0 W/m2
00:45 35.8 °F 31.4 °F 30.38 in ESE 7.0 mph 11.0 mph 84 % 0.00 in 0 W/m2
00:50 35.8 °F 31.4 °F 30.38 in ESE 8.0 mph 18.0 mph 84 % 0.00 in 0 W/m2
00:55 35.8 °F 31.1 °F 30.38 in ESE 8.0 mph 12.0 mph 83 % 0.00 in 0 W/m2
01:00 35.8 °F 31.1 °F 30.38 in ESE 5.0 mph 10.0 mph 83 % 0.00 in 0 W/m2
01:05 35.8 °F 31.1 °F 30.39 in ESE 8.0 mph 14.0 mph 83 % 0.00 in 0 W/m2
01:10 35.8 °F 31.1 °F 30.38 in ESE 7.0 mph 11.0 mph 83 % 0.00 in 0 W/m2
01:15 35.8 °F 31.1 °F 30.38 in ESE 7.0 mph 13.0 mph 83 % 0.00 in 0 W/m2
01:20 35.8 °F 31.1 °F 30.38 in ESE 8.0 mph 12.0 mph 83 % 0.00 in 0 W/m2
01:25 35.8 °F 31.1 °F 30.38 in ESE 8.0 mph 13.0 mph 83 % 0.00 in 0 W/m2
01:30 35.8 °F 30.8 °F 30.39 in ESE 8.0 mph 12.0 mph 82 % 0.00 in 0 W/m2
01:35 35.8 °F 31.1 °F 30.39 in ESE 6.0 mph 9.0 mph 83 % 0.00 in 0 W/m2
01:40 35.8 °F 30.8 °F 30.39 in ESE 10.0 mph 15.0 mph 82 % 0.00 in 0 W/m2
01:45 35.8 °F 30.5 °F 30.39 in SE 10.0 mph 18.0 mph 81 % 0.00 in 0 W/m2
01:50 35.8 °F 30.5 °F 30.39 in ESE 7.0 mph 9.0 mph 81 % 0.00 in 0 W/m2
01:55 35.8 °F 30.5 °F 30.39 in ESE 9.0 mph 12.0 mph 81 % 0.00 in 0 W/m2
02:00 35.8 °F 30.8 °F 30.39 in ESE 8.0 mph 13.0 mph 82 % 0.00 in 0 W/m2
02:05 35.8 °F 30.8 °F 30.39 in ESE 7.0 mph 9.0 mph 82 % 0.00 in 0 W/m2
02:10 35.6 °F 30.6 °F 30.39 in ESE 4.0 mph 9.0 mph 82 % 0.00 in 0 W/m2
02:15 35.6 °F 30.6 °F 30.39 in ESE 6.0 mph 9.0 mph 82 % 0.00 in 0 W/m2
02:20 35.4 °F 30.5 °F 30.39 in SE 6.0 mph 9.0 mph 82 % 0.00 in 0 W/m2
02:25 35.4 °F 30.5 °F 30.39 in ESE 5.0 mph 9.0 mph 82 % 0.00 in 0 W/m2
02:30 35.4 °F 30.5 °F 30.39 in ESE 7.0 mph 10.0 mph 82 % 0.00 in 0 W/m2
02:35 35.4 °F 30.2 °F 30.39 in ESE 7.0 mph 10.0 mph 81 % 0.00 in 0 W/m2
02:41 35.4 °F 30.2 °F 30.39 in ESE 4.0 mph 8.0 mph 81 % 0.00 in 0 W/m2
02:46 35.4 °F 30.2 °F 30.39 in ESE 7.0 mph 9.0 mph 81 % 0.00 in 0 W/m2
02:51 35.2 °F 30.0 °F 30.39 in ESE 7.0 mph 11.0 mph 81 % 0.00 in 0 W/m2
02:56 35.4 °F 30.2 °F 30.39 in ESE 5.0 mph 10.0 mph 81 % 0.00 in 0 W/m2
03:01 35.2 °F 29.7 °F 30.39 in ESE 9.0 mph 12.0 mph 80 % 0.00 in 0 W/m2
03:06 35.2 °F 29.7 °F 30.39 in ESE 5.0 mph 8.0 mph 80 % 0.00 in 0 W/m2
03:11 35.2 °F 29.7 °F 30.39 in ESE 5.0 mph 10.0 mph 80 % 0.00 in 0 W/m2
03:16 35.2 °F 29.7 °F 30.39 in ESE 5.0 mph 9.0 mph 80 % 0.00 in 0 W/m2
03:21 35.2 °F 29.7 °F 30.39 in ESE 4.0 mph 8.0 mph 80 % 0.00 in 0 W/m2
03:26 35.2 °F 29.7 °F 30.39 in ESE 9.0 mph 14.0 mph 80 % 0.00 in 0 W/m2
03:31 35.2 °F 29.7 °F 30.39 in ESE 7.0 mph 11.0 mph 80 % 0.00 in 0 W/m2
03:36 35.2 °F 29.7 °F 30.40 in ESE 4.0 mph 7.0 mph 80 % 0.00 in 0 W/m2
03:41 35.2 °F 30.0 °F 30.40 in ESE 4.0 mph 7.0 mph 81 % 0.00 in 0 W/m2
03:46 35.2 °F 30.0 °F 30.40 in East 3.0 mph 7.0 mph 81 % 0.00 in 0 W/m2
03:51 35.1 °F 29.8 °F 30.40 in ESE 6.0 mph 9.0 mph 81 % 0.00 in 0 W/m2
03:56 35.1 °F 29.8 °F 30.40 in ESE 5.0 mph 8.0 mph 81 % 0.00 in 0 W/m2
04:01 35.1 °F 29.8 °F 30.40 in ESE 5.0 mph 9.0 mph 81 % 0.00 in 0 W/m2
04:06 35.1 °F 29.8 °F 30.40 in ESE 4.0 mph 8.0 mph 81 % 0.00 in 0 W/m2
04:11 35.1 °F 29.8 °F 30.40 in East 6.0 mph 9.0 mph 81 % 0.00 in 0 W/m2
04:16 35.1 °F 30.1 °F 30.40 in East 3.0 mph 6.0 mph 82 % 0.00 in 0 W/m2
04:21 34.9 °F 29.9 °F 30.41 in East 3.0 mph 7.0 mph 82 % 0.00 in 0 W/m2
04:26 34.9 °F 29.9 °F 30.41 in East 3.0 mph 7.0 mph 82 % 0.00 in 0 W/m2
04:31 34.9 °F 29.9 °F 30.41 in East 1.0 mph 5.0 mph 82 % 0.00 in 0 W/m2
04:36 34.9 °F 30.2 °F 30.41 in East 1.0 mph 4.0 mph 83 % 0.00 in 0 W/m2
04:41 34.9 °F 30.2 °F 30.41 in East 3.0 mph 8.0 mph 83 % 0.00 in 0 W/m2
04:46 34.7 °F 30.1 °F 30.41 in East 4.0 mph 8.0 mph 83 % 0.00 in 0 W/m2
04:51 34.5 °F 29.9 °F 30.41 in ESE 4.0 mph 6.0 mph 83 % 0.00 in 0 W/m2
04:56 34.5 °F 29.9 °F 30.41 in East 3.0 mph 6.0 mph 83 % 0.00 in 0 W/m2
05:01 34.5 °F 29.9 °F 30.41 in East 5.0 mph 8.0 mph 83 % 0.00 in 0 W/m2
05:06 34.5 °F 29.9 °F 30.41 in East 2.0 mph 4.0 mph 83 % 0.00 in 0 W/m2
05:11 34.3 °F 29.7 °F 30.41 in East 4.0 mph 7.0 mph 83 % 0.00 in 0 W/m2
05:16 34.3 °F 29.4 °F 30.41 in East 4.0 mph 8.0 mph 82 % 0.00 in 0 W/m2
05:21 34.3 °F 29.4 °F 30.41 in ESE 4.0 mph 8.0 mph 82 % 0.00 in 0 W/m2
05:26 34.3 °F 29.4 °F 30.41 in East 5.0 mph 9.0 mph 82 % 0.00 in 0 W/m2
05:31 34.3 °F 29.4 °F 30.41 in ESE 4.0 mph 6.0 mph 82 % 0.00 in 0 W/m2
05:36 34.3 °F 29.4 °F 30.42 in ESE 4.0 mph 7.0 mph 82 % 0.00 in 0 W/m2
05:41 34.2 °F 29.2 °F 30.42 in East 2.0 mph 6.0 mph 82 % 0.00 in 0 W/m2
05:46 34.2 °F 29.2 °F 30.42 in ESE 4.0 mph 8.0 mph 82 % 0.00 in 0 W/m2
05:51 34.2 °F 29.2 °F 30.42 in ENE 3.0 mph 6.0 mph 82 % 0.00 in 0 W/m2
05:56 34.2 °F 29.2 °F 30.42 in East 3.0 mph 7.0 mph 82 % 0.00 in 0 W/m2
06:01 34.0 °F 29.4 °F 30.42 in East 3.0 mph 8.0 mph 83 % 0.00 in 0 W/m2
06:06 34.0 °F 29.4 °F 30.42 in East 3.0 mph 6.0 mph 83 % 0.00 in 0 W/m2
06:11 34.0 °F 29.4 °F 30.42 in East 2.0 mph 5.0 mph 83 % 0.00 in 0 W/m2
06:16 34.0 °F 29.4 °F 30.42 in ENE 4.0 mph 7.0 mph 83 % 0.00 in 0 W/m2
06:21 34.0 °F 29.4 °F 30.42 in East 2.0 mph 7.0 mph 83 % 0.00 in 0 W/m2
06:26 34.0 °F 29.4 °F 30.42 in East 2.0 mph 6.0 mph 83 % 0.00 in 0 W/m2
06:31 33.8 °F 29.2 °F 30.43 in ENE 2.0 mph 5.0 mph 83 % 0.00 in 0 W/m2
06:36 33.6 °F 29.0 °F 30.43 in ENE 3.0 mph 7.0 mph 83 % 0.00 in 0 W/m2
06:41 33.6 °F 29.0 °F 30.43 in ENE 2.0 mph 6.0 mph 83 % 0.00 in 0 W/m2
06:46 33.6 °F 29.0 °F 30.43 in ESE 2.0 mph 4.0 mph 83 % 0.00 in 0 W/m2
06:51 33.4 °F 28.8 °F 30.43 in East 2.0 mph 6.0 mph 83 % 0.00 in 0 W/m2
06:56 33.4 °F 28.8 °F 30.44 in East 3.0 mph 7.0 mph 83 % 0.00 in 0 W/m2
07:01 33.3 °F 28.7 °F 30.43 in East 3.0 mph 7.0 mph 83 % 0.00 in 0 W/m2
07:06 33.3 °F 28.7 °F 30.43 in East 2.0 mph 7.0 mph 83 % 0.00 in 5 W/m2
07:11 33.3 °F 28.9 °F 30.43 in East 3.0 mph 6.0 mph 84 % 0.00 in 7 W/m2
07:16 33.3 °F 28.9 °F 30.44 in East 2.0 mph 6.0 mph 84 % 0.00 in 9 W/m2
07:22 33.3 °F 28.9 °F 30.44 in East 3.0 mph 6.0 mph 84 % 0.00 in 11 W/m2
07:27 33.3 °F 28.9 °F 30.44 in East 2.0 mph 6.0 mph 84 % 0.00 in 16 W/m2
07:32 33.3 °F 28.9 °F 30.44 in East 2.0 mph 5.0 mph 84 % 0.00 in 16 W/m2
07:37 33.3 °F 28.9 °F 30.44 in ESE 2.0 mph 5.0 mph 84 % 0.00 in 19 W/m2
07:42 33.3 °F 28.9 °F 30.44 in ESE 5.0 mph 8.0 mph 84 % 0.00 in 25 W/m2
07:47 33.3 °F 28.7 °F 30.44 in ESE 4.0 mph 6.0 mph 83 % 0.00 in 28 W/m2
07:52 33.4 °F 28.8 °F 30.44 in East 3.0 mph 7.0 mph 83 % 0.00 in 60 W/m2
07:57 33.6 °F 29.0 °F 30.44 in East 3.0 mph 7.0 mph 83 % 0.00 in 44 W/m2
08:02 33.6 °F 29.0 °F 30.44 in ESE 3.0 mph 6.0 mph 83 % 0.00 in 62 W/m2
08:07 33.8 °F 29.2 °F 30.44 in ESE 3.0 mph 7.0 mph 83 % 0.00 in 76 W/m2
08:12 34.0 °F 29.1 °F 30.44 in ESE 5.0 mph 9.0 mph 82 % 0.00 in 76 W/m2
08:17 34.0 °F 29.1 °F 30.44 in ESE 5.0 mph 9.0 mph 82 % 0.00 in 67 W/m2
08:22 34.0 °F 29.1 °F 30.44 in ESE 2.0 mph 8.0 mph 82 % 0.00 in 104 W/m2
08:27 34.2 °F 29.2 °F 30.45 in East 6.0 mph 9.0 mph 82 % 0.00 in 179 W/m2
08:32 34.5 °F 29.3 °F 30.45 in ESE 5.0 mph 8.0 mph 81 % 0.00 in 125 W/m2
08:37 34.9 °F 29.3 °F 30.45 in East 6.0 mph 11.0 mph 80 % 0.00 in 146 W/m2
08:42 35.1 °F 29.5 °F 30.45 in ESE 6.0 mph 12.0 mph 80 % 0.00 in 163 W/m2
08:47 35.1 °F 29.2 °F 30.45 in East 6.0 mph 12.0 mph 79 % 0.00 in 204 W/m2
08:52 35.2 °F 29.4 °F 30.45 in East 7.0 mph 10.0 mph 79 % 0.00 in 250 W/m2
08:57 35.4 °F 29.2 °F 30.45 in ESE 5.0 mph 11.0 mph 78 % 0.00 in 213 W/m2
09:02 35.6 °F 29.1 °F 30.46 in East 6.0 mph 11.0 mph 77 % 0.00 in 123 W/m2
09:07 35.6 °F 29.1 °F 30.45 in East 6.0 mph 11.0 mph 77 % 0.00 in 239 W/m2
09:12 36.0 °F 29.4 °F 30.45 in ESE 7.0 mph 12.0 mph 77 % 0.00 in 287 W/m2
09:17 36.1 °F 29.3 °F 30.46 in SE 8.0 mph 15.0 mph 76 % 0.00 in 308 W/m2
09:22 36.3 °F 29.2 °F 30.45 in ESE 9.0 mph 15.0 mph 75 % 0.00 in 76 W/m2
09:27 36.1 °F 28.6 °F 30.45 in ESE 9.0 mph 14.0 mph 74 % 0.00 in 332 W/m2
09:32 36.3 °F 29.2 °F 30.45 in ESE 8.0 mph 12.0 mph 75 % 0.00 in 378 W/m2
09:37 36.9 °F 29.3 °F 30.45 in East 8.0 mph 12.0 mph 74 % 0.00 in 429 W/m2
09:42 37.2 °F 29.4 °F 30.45 in East 9.0 mph 13.0 mph 73 % 0.00 in 420 W/m2
09:47 37.2 °F 29.4 °F 30.45 in ESE 8.0 mph 12.0 mph 73 % 0.00 in 461 W/m2
09:52 37.2 °F 29.0 °F 30.45 in ESE 11.0 mph 15.0 mph 72 % 0.00 in 192 W/m2
09:57 36.7 °F 28.5 °F 30.46 in ESE 10.0 mph 14.0 mph 72 % 0.00 in 139 W/m2
10:02 36.5 °F 28.7 °F 30.46 in ESE 11.0 mph 16.0 mph 73 % 0.00 in 134 W/m2
10:07 36.1 °F 28.3 °F 30.46 in ESE 8.0 mph 12.0 mph 73 % 0.00 in 169 W/m2
10:12 36.1 °F 28.6 °F 30.46 in ESE 9.0 mph 13.0 mph 74 % 0.00 in 186 W/m2
10:17 36.1 °F 28.6 °F 30.46 in ESE 8.0 mph 14.0 mph 74 % 0.00 in 207 W/m2
10:22 36.3 °F 28.5 °F 30.46 in ESE 10.0 mph 15.0 mph 73 % 0.00 in 214 W/m2
10:28 37.0 °F 29.2 °F 30.45 in SE 10.0 mph 18.0 mph 73 % 0.00 in 517 W/m2
10:33 37.2 °F 28.7 °F 30.46 in ESE 9.0 mph 16.0 mph 71 % 0.00 in 250 W/m2
10:38 37.0 °F 28.5 °F 30.45 in ESE 9.0 mph 15.0 mph 71 % 0.00 in 141 W/m2
10:43 36.9 °F 28.3 °F 30.45 in East 6.0 mph 12.0 mph 71 % 0.00 in 135 W/m2
10:48 36.9 °F 28.7 °F 30.45 in East 7.0 mph 12.0 mph 72 % 0.00 in 144 W/m2
10:53 36.9 °F 28.3 °F 30.45 in ESE 8.0 mph 13.0 mph 71 % 0.00 in 163 W/m2
10:58 36.7 °F 28.2 °F 30.45 in ESE 7.0 mph 12.0 mph 71 % 0.00 in 320 W/m2
11:03 37.0 °F 28.5 °F 30.45 in East 7.0 mph 14.0 mph 71 % 0.00 in 621 W/m2
11:08 37.8 °F 28.9 °F 30.45 in East 8.0 mph 11.0 mph 70 % 0.00 in 561 W/m2
11:13 38.1 °F 29.2 °F 30.45 in East 6.0 mph 13.0 mph 70 % 0.00 in 603 W/m2
11:18 38.8 °F 29.5 °F 30.45 in ESE 8.0 mph 12.0 mph 69 % 0.00 in 533 W/m2
11:23 39.4 °F 28.6 °F 30.45 in ESE 9.0 mph 14.0 mph 65 % 0.00 in 522 W/m2
11:28 39.4 °F 28.6 °F 30.45 in ESE 9.0 mph 14.0 mph 65 % 0.00 in 548 W/m2
11:33 39.4 °F 28.6 °F 30.45 in ESE 9.0 mph 13.0 mph 65 % 0.00 in 524 W/m2
11:38 39.4 °F 29.0 °F 30.45 in SE 6.0 mph 12.0 mph 66 % 0.00 in 522 W/m2
11:43 39.7 °F 29.3 °F 30.44 in SE 7.0 mph 13.0 mph 66 % 0.00 in 527 W/m2
11:48 40.3 °F 29.8 °F 30.45 in ESE 6.0 mph 9.0 mph 66 % 0.00 in 570 W/m2
11:53 40.3 °F 29.4 °F 30.45 in East 8.0 mph 16.0 mph 65 % 0.00 in 566 W/m2
11:58 40.1 °F 29.3 °F 30.45 in East 7.0 mph 11.0 mph 65 % 0.00 in 557 W/m2
12:03 40.1 °F 29.6 °F 30.45 in East 7.0 mph 13.0 mph 66 % 0.00 in 559 W/m2
12:08 40.3 °F 29.4 °F 30.45 in East 8.0 mph 13.0 mph 65 % 0.00 in 580 W/m2
12:13 40.3 °F 29.1 °F 30.45 in East 7.0 mph 13.0 mph 64 % 0.00 in 543 W/m2
12:18 39.9 °F 28.7 °F 30.45 in ESE 6.0 mph 11.0 mph 64 % 0.00 in 496 W/m2
12:23 39.9 °F 28.7 °F 30.44 in ESE 5.0 mph 9.0 mph 64 % 0.00 in 113 W/m2
12:28 39.7 °F 28.2 °F 30.44 in East 8.0 mph 14.0 mph 63 % 0.00 in 526 W/m2
12:33 39.6 °F 28.0 °F 30.44 in East 7.0 mph 15.0 mph 63 % 0.00 in 513 W/m2
12:38 39.9 °F 27.5 °F 30.44 in East 6.0 mph 9.0 mph 61 % 0.00 in 513 W/m2
12:43 40.3 °F 27.9 °F 30.44 in ESE 10.0 mph 15.0 mph 61 % 0.00 in 510 W/m2
12:48 40.3 °F 27.9 °F 30.44 in ESE 7.0 mph 12.0 mph 61 % 0.00 in 504 W/m2
12:53 40.3 °F 27.5 °F 30.44 in ESE 7.0 mph 12.0 mph 60 % 0.00 in 508 W/m2
12:58 40.5 °F 27.7 °F 30.44 in East 7.0 mph 11.0 mph 60 % 0.00 in 503 W/m2
13:03 40.5 °F 27.2 °F 30.44 in East 7.0 mph 12.0 mph 59 % 0.00 in 497 W/m2
13:08 40.5 °F 27.7 °F 30.44 in ESE 9.0 mph 13.0 mph 60 % 0.00 in 499 W/m2
13:13 40.6 °F 27.8 °F 30.44 in ESE 9.0 mph 14.0 mph 60 % 0.00 in 494 W/m2
13:18 40.5 °F 27.2 °F 30.43 in ESE 7.0 mph 12.0 mph 59 % 0.00 in 489 W/m2
13:23 40.6 °F 27.4 °F 30.44 in ESE 9.0 mph 16.0 mph 59 % 0.00 in 487 W/m2
13:28 40.6 °F 27.4 °F 30.43 in East 5.0 mph 10.0 mph 59 % 0.00 in 483 W/m2
13:33 40.8 °F 28.0 °F 30.43 in ESE 8.0 mph 12.0 mph 60 % 0.00 in 478 W/m2
13:38 41.0 °F 27.8 °F 30.43 in East 8.0 mph 12.0 mph 59 % 0.00 in 469 W/m2
13:43 41.2 °F 27.5 °F 30.43 in SE 7.0 mph 10.0 mph 58 % 0.00 in 462 W/m2
13:49 41.4 °F 27.7 °F 30.43 in ESE 3.0 mph 9.0 mph 58 % 0.00 in 457 W/m2
13:54 41.5 °F 27.0 °F 30.43 in East 7.0 mph 11.0 mph 56 % 0.00 in 450 W/m2
13:58 41.0 °F 26.9 °F 30.43 in East 6.0 mph 10.0 mph 57 % 0.00 in 445 W/m2
14:04 41.0 °F 26.9 °F 30.43 in ESE 9.0 mph 14.0 mph 57 % 0.00 in 434 W/m2
14:09 41.0 °F 27.3 °F 30.43 in East 8.0 mph 14.0 mph 58 % 0.00 in 425 W/m2
14:14 40.8 °F 26.7 °F 30.43 in East 9.0 mph 15.0 mph 57 % 0.00 in 420 W/m2
14:19 40.8 °F 26.3 °F 30.43 in ESE 8.0 mph 13.0 mph 56 % 0.00 in 411 W/m2
14:24 40.8 °F 26.7 °F 30.42 in ESE 7.0 mph 10.0 mph 57 % 0.00 in 406 W/m2
14:29 40.6 °F 25.7 °F 30.43 in ESE 6.0 mph 11.0 mph 55 % 0.00 in 392 W/m2
14:34 40.8 °F 25.9 °F 30.43 in ESE 8.0 mph 12.0 mph 55 % 0.00 in 383 W/m2
14:39 40.8 °F 25.9 °F 30.42 in ESE 8.0 mph 13.0 mph 55 % 0.00 in 374 W/m2
14:44 40.6 °F 25.7 °F 30.42 in ESE 9.0 mph 16.0 mph 55 % 0.00 in 364 W/m2
14:49 40.6 °F 25.3 °F 30.42 in ESE 7.0 mph 14.0 mph 54 % 0.00 in 353 W/m2
14:54 40.6 °F 24.8 °F 30.42 in ESE 7.0 mph 11.0 mph 53 % 0.00 in 341 W/m2
14:59 40.5 °F 25.5 °F 30.43 in ESE 8.0 mph 12.0 mph 55 % 0.00 in 332 W/m2
15:04 40.6 °F 25.7 °F 30.42 in ESE 9.0 mph 13.0 mph 55 % 0.00 in 323 W/m2
15:09 40.3 °F 25.8 °F 30.42 in ESE 7.0 mph 13.0 mph 56 % 0.00 in 315 W/m2
15:14 40.3 °F 25.8 °F 30.43 in ESE 8.0 mph 13.0 mph 56 % 0.00 in 299 W/m2
15:19 40.3 °F 25.8 °F 30.43 in East 6.0 mph 10.0 mph 56 % 0.00 in 287 W/m2
15:24 40.5 °F 25.5 °F 30.43 in ESE 9.0 mph 14.0 mph 55 % 0.00 in 272 W/m2
15:29 40.3 °F 25.4 °F 30.43 in ESE 10.0 mph 14.0 mph 55 % 0.00 in 265 W/m2
15:34 40.1 °F 25.6 °F 30.43 in ESE 8.0 mph 13.0 mph 56 % 0.00 in 250 W/m2
15:39 39.9 °F 25.5 °F 30.43 in East 6.0 mph 11.0 mph 56 % 0.00 in 241 W/m2
15:44 39.7 °F 25.7 °F 30.43 in East 7.0 mph 11.0 mph 57 % 0.00 in 229 W/m2
15:49 39.6 °F 25.1 °F 30.43 in East 10.0 mph 14.0 mph 56 % 0.00 in 216 W/m2
15:54 39.2 °F 24.8 °F 30.43 in ESE 7.0 mph 11.0 mph 56 % 0.00 in 206 W/m2
15:59 39.0 °F 25.1 °F 30.43 in East 8.0 mph 14.0 mph 57 % 0.00 in 148 W/m2
16:04 39.0 °F 25.5 °F 30.44 in ESE 7.0 mph 12.0 mph 58 % 0.00 in 42 W/m2
16:09 38.8 °F 25.7 °F 30.44 in East 5.0 mph 11.0 mph 59 % 0.00 in 39 W/m2
16:14 38.8 °F 25.3 °F 30.44 in East 7.0 mph 12.0 mph 58 % 0.00 in 37 W/m2
16:19 38.7 °F 25.6 °F 30.44 in East 8.0 mph 11.0 mph 59 % 0.00 in 37 W/m2
16:24 38.5 °F 25.8 °F 30.44 in ESE 8.0 mph 14.0 mph 60 % 0.00 in 35 W/m2
16:29 38.3 °F 26.0 °F 30.44 in East 6.0 mph 9.0 mph 61 % 0.00 in 35 W/m2
16:34 38.1 °F 26.2 °F 30.44 in East 7.0 mph 12.0 mph 62 % 0.00 in 37 W/m2
16:39 37.9 °F 26.1 °F 30.44 in East 7.0 mph 15.0 mph 62 % 0.00 in 32 W/m2
16:44 37.8 °F 25.9 °F 30.45 in East 6.0 mph 11.0 mph 62 % 0.00 in 30 W/m2
16:49 37.6 °F 26.1 °F 30.45 in ESE 10.0 mph 13.0 mph 63 % 0.00 in 30 W/m2
16:54 37.2 °F 25.8 °F 30.45 in East 7.0 mph 11.0 mph 63 % 0.00 in 26 W/m2
16:59 37.0 °F 25.6 °F 30.45 in East 5.0 mph 9.0 mph 63 % 0.00 in 23 W/m2
17:04 36.9 °F 25.8 °F 30.45 in East 7.0 mph 11.0 mph 64 % 0.00 in 21 W/m2
17:09 36.7 °F 26.0 °F 30.45 in ESE 9.0 mph 13.0 mph 65 % 0.00 in 19 W/m2
17:14 36.3 °F 25.7 °F 30.46 in East 8.0 mph 12.0 mph 65 % 0.00 in 16 W/m2
17:19 36.0 °F 25.3 °F 30.46 in East 7.0 mph 12.0 mph 65 % 0.00 in 14 W/m2
17:24 35.8 °F 25.5 °F 30.46 in East 6.0 mph 12.0 mph 66 % 0.00 in 11 W/m2
17:29 35.6 °F 25.4 °F 30.46 in East 6.0 mph 9.0 mph 66 % 0.00 in 9 W/m2
17:34 35.2 °F 25.4 °F 30.46 in East 6.0 mph 13.0 mph 67 % 0.00 in 7 W/m2
17:39 35.2 °F 25.4 °F 30.46 in East 6.0 mph 10.0 mph 67 % 0.00 in 5 W/m2
17:44 34.9 °F 25.4 °F 30.46 in East 7.0 mph 12.0 mph 68 % 0.00 in 0 W/m2
17:49 34.7 °F 25.6 °F 30.46 in East 5.0 mph 11.0 mph 69 % 0.00 in 0 W/m2
17:54 34.5 °F 25.4 °F 30.46 in East 6.0 mph 10.0 mph 69 % 0.00 in 0 W/m2
17:59 34.3 °F 25.2 °F 30.47 in East 6.0 mph 10.0 mph 69 % 0.00 in 0 W/m2
18:04 34.2 °F 25.4 °F 30.47 in East 4.0 mph 9.0 mph 70 % 0.00 in 0 W/m2
18:09 34.0 °F 25.2 °F 30.47 in East 6.0 mph 9.0 mph 70 % 0.00 in 0 W/m2
18:14 33.8 °F 25.0 °F 30.47 in East 4.0 mph 7.0 mph 70 % 0.00 in 0 W/m2
18:19 33.6 °F 25.2 °F 30.47 in East 4.0 mph 7.0 mph 71 % 0.00 in 0 W/m2
18:24 33.4 °F 25.0 °F 30.47 in East 4.0 mph 7.0 mph 71 % 0.00 in 0 W/m2
18:29 33.3 °F 25.2 °F 30.48 in East 3.0 mph 7.0 mph 72 % 0.00 in 0 W/m2
18:34 33.1 °F 25.0 °F 30.48 in East 3.0 mph 7.0 mph 72 % 0.00 in 0 W/m2
18:39 33.1 °F 25.0 °F 30.48 in East 3.0 mph 7.0 mph 72 % 0.00 in 0 W/m2
18:45 32.9 °F 24.9 °F 30.48 in East 5.0 mph 9.0 mph 72 % 0.00 in 0 W/m2
18:49 32.7 °F 25.0 °F 30.48 in ESE 4.0 mph 8.0 mph 73 % 0.00 in 0 W/m2
18:54 32.5 °F 24.8 °F 30.48 in East 3.0 mph 6.0 mph 73 % 0.00 in 0 W/m2
18:59 32.5 °F 24.8 °F 30.48 in East 4.0 mph 8.0 mph 73 % 0.00 in 0 W/m2
19:04 32.4 °F 25.0 °F 30.48 in East 2.0 mph 7.0 mph 74 % 0.00 in 0 W/m2
19:10 32.4 °F 25.0 °F 30.49 in ESE 2.0 mph 5.0 mph 74 % 0.00 in 0 W/m2
19:15 32.2 °F 24.8 °F 30.49 in East 2.0 mph 6.0 mph 74 % 0.00 in 0 W/m2
19:20 32.0 °F 25.0 °F 30.49 in East 2.0 mph 6.0 mph 75 % 0.00 in 0 W/m2
19:25 31.8 °F 24.8 °F 30.49 in ESE 3.0 mph 5.0 mph 75 % 0.00 in 0 W/m2
19:30 31.6 °F 24.6 °F 30.49 in East 3.0 mph 7.0 mph 75 % 0.00 in 0 W/m2
19:35 31.6 °F 24.6 °F 30.49 in East 2.0 mph 5.0 mph 75 % 0.00 in 0 W/m2
19:40 31.5 °F 24.4 °F 30.49 in ESE 3.0 mph 8.0 mph 75 % 0.00 in 0 W/m2
19:45 31.5 °F 24.4 °F 30.49 in East 2.0 mph 5.0 mph 75 % 0.00 in 0 W/m2
19:50 31.3 °F 24.3 °F 30.50 in ESE 3.0 mph 7.0 mph 75 % 0.00 in 0 W/m2
19:55 31.3 °F 24.3 °F 30.50 in East 4.0 mph 8.0 mph 75 % 0.00 in 0 W/m2
20:00 31.1 °F 24.1 °F 30.50 in East 4.0 mph 7.0 mph 75 % 0.00 in 0 W/m2
20:05 30.9 °F 23.9 °F 30.50 in East 5.0 mph 8.0 mph 75 % 0.00 in 0 W/m2
20:10 30.9 °F 23.9 °F 30.50 in East 5.0 mph 9.0 mph 75 % 0.00 in 0 W/m2
20:15 30.9 °F 23.9 °F 30.50 in East 5.0 mph 9.0 mph 75 % 0.00 in 0 W/m2
20:20 30.9 °F 23.9 °F 30.50 in East 4.0 mph 9.0 mph 75 % 0.00 in 0 W/m2
20:25 30.9 °F 23.9 °F 30.50 in East 4.0 mph 9.0 mph 75 % 0.00 in 0 W/m2
20:30 30.7 °F 23.8 °F 30.50 in East 4.0 mph 8.0 mph 75 % 0.00 in 0 W/m2
20:35 30.7 °F 23.8 °F 30.50 in ESE 3.0 mph 6.0 mph 75 % 0.00 in 0 W/m2
20:40 30.7 °F 24.1 °F 30.51 in ESE 4.0 mph 8.0 mph 76 % 0.00 in 0 W/m2
20:45 30.6 °F 23.9 °F 30.51 in East 4.0 mph 8.0 mph 76 % 0.00 in 0 W/m2
20:50 30.4 °F 23.7 °F 30.51 in ESE 3.0 mph 7.0 mph 76 % 0.00 in 0 W/m2
20:55 30.4 °F 23.7 °F 30.51 in East 2.0 mph 6.0 mph 76 % 0.00 in 0 W/m2
21:00 30.4 °F 23.7 °F 30.51 in ESE 3.0 mph 7.0 mph 76 % 0.00 in 0 W/m2
21:05 30.4 °F 23.7 °F 30.51 in East 3.0 mph 6.0 mph 76 % 0.00 in 0 W/m2
21:10 30.2 °F 23.5 °F 30.51 in East 1.0 mph 5.0 mph 76 % 0.00 in 0 W/m2
21:15 30.0 °F 23.7 °F 30.51 in East 3.0 mph 5.0 mph 77 % 0.00 in 0 W/m2
21:20 30.0 °F 23.7 °F 30.51 in East 1.0 mph 6.0 mph 77 % 0.00 in 0 W/m2
21:25 29.8 °F 23.5 °F 30.51 in East 3.0 mph 6.0 mph 77 % 0.00 in 0 W/m2
21:30 29.8 °F 23.5 °F 30.52 in East 2.0 mph 5.0 mph 77 % 0.00 in 0 W/m2
21:35 29.8 °F 23.5 °F 30.52 in ENE 2.0 mph 5.0 mph 77 % 0.00 in 0 W/m2
21:40 29.7 °F 23.3 °F 30.51 in East 2.0 mph 5.0 mph 77 % 0.00 in 0 W/m2
21:45 29.7 °F 23.3 °F 30.52 in East 3.0 mph 8.0 mph 77 % 0.00 in 0 W/m2
Delerius-Weather
Compliments of Weather Underground - 2.25 mb

Data updates at regular intervals.